sensor_id;sensor_type;location;lat;lon;timestamp;P1;durP1;ratioP1;P2;durP2;ratioP2
72771;SDS011;60894;42.544;1.516;2023-12-29T00:02:01;9.50;;;3.10;;
72771;SDS011;60894;42.544;1.516;2023-12-29T00:04:28;13.95;;;2.97;;
72771;SDS011;60894;42.544;1.516;2023-12-29T00:06:55;9.82;;;3.05;;
72771;SDS011;60894;42.544;1.516;2023-12-29T00:09:22;11.13;;;2.90;;
72771;SDS011;60894;42.544;1.516;2023-12-29T00:11:49;10.82;;;3.22;;
72771;SDS011;60894;42.544;1.516;2023-12-29T00:14:17;9.33;;;3.33;;
72771;SDS011;60894;42.544;1.516;2023-12-29T00:16:45;11.00;;;3.20;;
72771;SDS011;60894;42.544;1.516;2023-12-29T00:19:12;9.93;;;3.13;;
72771;SDS011;60894;42.544;1.516;2023-12-29T00:21:39;8.27;;;2.38;;
72771;SDS011;60894;42.544;1.516;2023-12-29T00:24:06;8.32;;;2.22;;
72771;SDS011;60894;42.544;1.516;2023-12-29T00:26:33;5.63;;;2.20;;
72771;SDS011;60894;42.544;1.516;2023-12-29T00:29:00;10.38;;;2.25;;
72771;SDS011;60894;42.544;1.516;2023-12-29T00:31:28;9.20;;;2.75;;
72771;SDS011;60894;42.544;1.516;2023-12-29T00:33:56;7.10;;;2.30;;
72771;SDS011;60894;42.544;1.516;2023-12-29T00:36:23;10.23;;;2.90;;
72771;SDS011;60894;42.544;1.516;2023-12-29T00:38:50;6.23;;;2.10;;
72771;SDS011;60894;42.544;1.516;2023-12-29T00:41:17;8.13;;;2.35;;
72771;SDS011;60894;42.544;1.516;2023-12-29T00:43:44;7.80;;;2.60;;
72771;SDS011;60894;42.544;1.516;2023-12-29T00:46:13;9.45;;;3.10;;
72771;SDS011;60894;42.544;1.516;2023-12-29T00:48:41;8.75;;;2.50;;
72771;SDS011;60894;42.544;1.516;2023-12-29T00:51:09;7.20;;;2.10;;
72771;SDS011;60894;42.544;1.516;2023-12-29T00:53:36;6.25;;;1.88;;
72771;SDS011;60894;42.544;1.516;2023-12-29T00:56:09;6.85;;;1.88;;
72771;SDS011;60894;42.544;1.516;2023-12-29T00:58:36;5.00;;;1.50;;
72771;SDS011;60894;42.544;1.516;2023-12-29T01:01:03;7.30;;;2.28;;
72771;SDS011;60894;42.544;1.516;2023-12-29T01:03:33;6.23;;;1.90;;
72771;SDS011;60894;42.544;1.516;2023-12-29T01:06:00;5.82;;;1.50;;
72771;SDS011;60894;42.544;1.516;2023-12-29T01:08:28;5.97;;;1.70;;
72771;SDS011;60894;42.544;1.516;2023-12-29T01:10:55;6.00;;;1.58;;
72771;SDS011;60894;42.544;1.516;2023-12-29T01:13:22;9.63;;;2.20;;
72771;SDS011;60894;42.544;1.516;2023-12-29T01:15:49;5.97;;;1.80;;
72771;SDS011;60894;42.544;1.516;2023-12-29T01:18:16;4.40;;;1.60;;
72771;SDS011;60894;42.544;1.516;2023-12-29T01:20:43;3.47;;;1.30;;
72771;SDS011;60894;42.544;1.516;2023-12-29T01:23:10;6.07;;;1.95;;
72771;SDS011;60894;42.544;1.516;2023-12-29T01:25:39;4.18;;;1.58;;
72771;SDS011;60894;42.544;1.516;2023-12-29T01:28:06;6.00;;;1.47;;
72771;SDS011;60894;42.544;1.516;2023-12-29T01:30:33;5.05;;;1.30;;
72771;SDS011;60894;42.544;1.516;2023-12-29T01:33:00;4.60;;;1.33;;
72771;SDS011;60894;42.544;1.516;2023-12-29T01:35:26;3.60;;;1.30;;
72771;SDS011;60894;42.544;1.516;2023-12-29T01:37:53;3.97;;;1.15;;
72771;SDS011;60894;42.544;1.516;2023-12-29T01:40:22;3.67;;;0.97;;
72771;SDS011;60894;42.544;1.516;2023-12-29T01:42:50;5.57;;;0.93;;
72771;SDS011;60894;42.544;1.516;2023-12-29T01:45:20;4.30;;;1.30;;
72771;SDS011;60894;42.544;1.516;2023-12-29T01:47:48;6.25;;;1.35;;
72771;SDS011;60894;42.544;1.516;2023-12-29T01:50:16;3.60;;;0.82;;
72771;SDS011;60894;42.544;1.516;2023-12-29T01:52:43;5.60;;;0.90;;
72771;SDS011;60894;42.544;1.516;2023-12-29T01:55:12;2.53;;;1.00;;
72771;SDS011;60894;42.544;1.516;2023-12-29T01:57:44;2.92;;;1.00;;
72771;SDS011;60894;42.544;1.516;2023-12-29T02:00:13;4.25;;;1.23;;
72771;SDS011;60894;42.544;1.516;2023-12-29T02:02:43;4.97;;;1.27;;
72771;SDS011;60894;42.544;1.516;2023-12-29T02:05:10;5.70;;;1.30;;
72771;SDS011;60894;42.544;1.516;2023-12-29T02:07:40;3.90;;;1.13;;
72771;SDS011;60894;42.544;1.516;2023-12-29T02:10:07;2.40;;;0.90;;
72771;SDS011;60894;42.544;1.516;2023-12-29T02:12:35;3.08;;;1.10;;
72771;SDS011;60894;42.544;1.516;2023-12-29T02:15:03;9.82;;;2.78;;
72771;SDS011;60894;42.544;1.516;2023-12-29T02:17:34;14.83;;;6.13;;
72771;SDS011;60894;42.544;1.516;2023-12-29T02:20:06;24.20;;;10.10;;
72771;SDS011;60894;42.544;1.516;2023-12-29T02:22:34;8.45;;;3.38;;
72771;SDS011;60894;42.544;1.516;2023-12-29T02:25:03;4.30;;;1.13;;
72771;SDS011;60894;42.544;1.516;2023-12-29T02:27:33;3.92;;;0.88;;
72771;SDS011;60894;42.544;1.516;2023-12-29T02:30:08;4.80;;;1.10;;
72771;SDS011;60894;42.544;1.516;2023-12-29T02:32:38;4.45;;;1.10;;
72771;SDS011;60894;42.544;1.516;2023-12-29T02:35:06;4.28;;;1.13;;
72771;SDS011;60894;42.544;1.516;2023-12-29T02:37:37;4.50;;;0.95;;
72771;SDS011;60894;42.544;1.516;2023-12-29T02:40:08;2.38;;;0.70;;
72771;SDS011;60894;42.544;1.516;2023-12-29T02:42:36;3.70;;;0.80;;
72771;SDS011;60894;42.544;1.516;2023-12-29T02:45:03;2.97;;;0.90;;
72771;SDS011;60894;42.544;1.516;2023-12-29T02:47:30;2.85;;;1.10;;
72771;SDS011;60894;42.544;1.516;2023-12-29T02:49:58;2.33;;;0.90;;
72771;SDS011;60894;42.544;1.516;2023-12-29T02:52:24;3.33;;;1.10;;
72771;SDS011;60894;42.544;1.516;2023-12-29T02:54:51;4.33;;;1.37;;
72771;SDS011;60894;42.544;1.516;2023-12-29T02:57:20;2.88;;;1.02;;
72771;SDS011;60894;42.544;1.516;2023-12-29T02:59:46;2.33;;;0.90;;
72771;SDS011;60894;42.544;1.516;2023-12-29T03:02:13;3.00;;;0.75;;
72771;SDS011;60894;42.544;1.516;2023-12-29T03:04:40;4.13;;;0.90;;
72771;SDS011;60894;42.544;1.516;2023-12-29T03:07:07;2.80;;;0.90;;
72771;SDS011;60894;42.544;1.516;2023-12-29T03:09:34;1.60;;;0.70;;
72771;SDS011;60894;42.544;1.516;2023-12-29T03:12:00;3.15;;;0.80;;
72771;SDS011;60894;42.544;1.516;2023-12-29T03:14:29;3.58;;;1.05;;
72771;SDS011;60894;42.544;1.516;2023-12-29T03:16:56;3.92;;;0.93;;
72771;SDS011;60894;42.544;1.516;2023-12-29T03:19:23;3.57;;;1.00;;
72771;SDS011;60894;42.544;1.516;2023-12-29T03:21:50;6.00;;;1.00;;
72771;SDS011;60894;42.544;1.516;2023-12-29T03:24:19;1.95;;;0.90;;
72771;SDS011;60894;42.544;1.516;2023-12-29T03:26:46;4.40;;;1.25;;
72771;SDS011;60894;42.544;1.516;2023-12-29T03:29:13;3.55;;;1.20;;
72771;SDS011;60894;42.544;1.516;2023-12-29T03:31:41;2.53;;;0.80;;
72771;SDS011;60894;42.544;1.516;2023-12-29T03:34:08;3.05;;;0.70;;
72771;SDS011;60894;42.544;1.516;2023-12-29T03:36:35;2.50;;;0.65;;
72771;SDS011;60894;42.544;1.516;2023-12-29T03:39:02;4.68;;;1.20;;
72771;SDS011;60894;42.544;1.516;2023-12-29T03:41:29;2.60;;;0.77;;
72771;SDS011;60894;42.544;1.516;2023-12-29T03:43:56;2.87;;;0.77;;
72771;SDS011;60894;42.544;1.516;2023-12-29T03:46:24;1.58;;;0.70;;
72771;SDS011;60894;42.544;1.516;2023-12-29T03:48:53;2.28;;;0.75;;
72771;SDS011;60894;42.544;1.516;2023-12-29T03:51:20;1.00;;;0.38;;
72771;SDS011;60894;42.544;1.516;2023-12-29T03:53:47;0.90;;;0.40;;
72771;SDS011;60894;42.544;1.516;2023-12-29T03:56:14;1.50;;;0.50;;
72771;SDS011;60894;42.544;1.516;2023-12-29T03:58:43;1.92;;;0.70;;
72771;SDS011;60894;42.544;1.516;2023-12-29T04:01:10;2.08;;;0.80;;
72771;SDS011;60894;42.544;1.516;2023-12-29T04:03:37;4.05;;;0.70;;
72771;SDS011;60894;42.544;1.516;2023-12-29T04:06:06;2.38;;;0.50;;
72771;SDS011;60894;42.544;1.516;2023-12-29T04:08:34;0.90;;;0.50;;
72771;SDS011;60894;42.544;1.516;2023-12-29T04:11:01;1.90;;;0.55;;
72771;SDS011;60894;42.544;1.516;2023-12-29T04:13:28;1.73;;;0.50;;
72771;SDS011;60894;42.544;1.516;2023-12-29T04:15:55;1.80;;;0.68;;
72771;SDS011;60894;42.544;1.516;2023-12-29T04:18:23;2.03;;;0.77;;
72771;SDS011;60894;42.544;1.516;2023-12-29T04:20:50;2.33;;;0.53;;
72771;SDS011;60894;42.544;1.516;2023-12-29T04:23:18;1.70;;;0.40;;
72771;SDS011;60894;42.544;1.516;2023-12-29T04:25:45;0.60;;;0.30;;
72771;SDS011;60894;42.544;1.516;2023-12-29T04:28:12;1.02;;;0.52;;
72771;SDS011;60894;42.544;1.516;2023-12-29T04:30:39;2.38;;;0.50;;
72771;SDS011;60894;42.544;1.516;2023-12-29T04:33:06;1.43;;;0.50;;
72771;SDS011;60894;42.544;1.516;2023-12-29T04:35:33;1.15;;;0.40;;
72771;SDS011;60894;42.544;1.516;2023-12-29T04:38:00;1.98;;;0.80;;
72771;SDS011;60894;42.544;1.516;2023-12-29T04:40:28;1.48;;;0.50;;
72771;SDS011;60894;42.544;1.516;2023-12-29T04:42:55;1.92;;;0.60;;
72771;SDS011;60894;42.544;1.516;2023-12-29T04:45:22;3.67;;;0.80;;
72771;SDS011;60894;42.544;1.516;2023-12-29T04:47:49;2.35;;;0.50;;
72771;SDS011;60894;42.544;1.516;2023-12-29T04:50:16;1.75;;;0.60;;
72771;SDS011;60894;42.544;1.516;2023-12-29T04:52:43;1.40;;;0.50;;
72771;SDS011;60894;42.544;1.516;2023-12-29T04:55:09;1.77;;;0.50;;
72771;SDS011;60894;42.544;1.516;2023-12-29T04:57:39;2.23;;;0.50;;
72771;SDS011;60894;42.544;1.516;2023-12-29T05:00:07;2.70;;;0.63;;
72771;SDS011;60894;42.544;1.516;2023-12-29T05:02:34;4.38;;;1.10;;
72771;SDS011;60894;42.544;1.516;2023-12-29T05:05:01;3.35;;;1.20;;
72771;SDS011;60894;42.544;1.516;2023-12-29T05:07:28;3.33;;;0.75;;
72771;SDS011;60894;42.544;1.516;2023-12-29T05:09:55;1.10;;;0.50;;
72771;SDS011;60894;42.544;1.516;2023-12-29T05:12:22;1.42;;;0.60;;
72771;SDS011;60894;42.544;1.516;2023-12-29T05:14:50;2.13;;;0.70;;
72771;SDS011;60894;42.544;1.516;2023-12-29T05:17:17;1.90;;;0.60;;
72771;SDS011;60894;42.544;1.516;2023-12-29T05:19:44;3.33;;;0.60;;
72771;SDS011;60894;42.544;1.516;2023-12-29T05:22:11;3.07;;;0.77;;
72771;SDS011;60894;42.544;1.516;2023-12-29T05:24:41;3.25;;;0.80;;
72771;SDS011;60894;42.544;1.516;2023-12-29T05:27:09;2.10;;;0.52;;
72771;SDS011;60894;42.544;1.516;2023-12-29T05:29:35;1.95;;;0.75;;
72771;SDS011;60894;42.544;1.516;2023-12-29T05:32:04;2.97;;;0.90;;
72771;SDS011;60894;42.544;1.516;2023-12-29T05:34:32;8.00;;;2.00;;
72771;SDS011;60894;42.544;1.516;2023-12-29T05:36:59;5.68;;;1.52;;
72771;SDS011;60894;42.544;1.516;2023-12-29T05:39:26;7.65;;;2.38;;
72771;SDS011;60894;42.544;1.516;2023-12-29T05:41:54;4.88;;;1.50;;
72771;SDS011;60894;42.544;1.516;2023-12-29T05:44:21;2.25;;;1.00;;
72771;SDS011;60894;42.544;1.516;2023-12-29T05:46:48;6.73;;;1.73;;
72771;SDS011;60894;42.544;1.516;2023-12-29T05:49:17;3.30;;;1.30;;
72771;SDS011;60894;42.544;1.516;2023-12-29T05:51:44;2.53;;;0.68;;
72771;SDS011;60894;42.544;1.516;2023-12-29T05:54:11;6.35;;;0.80;;
72771;SDS011;60894;42.544;1.516;2023-12-29T05:56:38;2.83;;;0.80;;
72771;SDS011;60894;42.544;1.516;2023-12-29T05:59:05;5.67;;;0.90;;
72771;SDS011;60894;42.544;1.516;2023-12-29T06:01:32;3.50;;;0.93;;
72771;SDS011;60894;42.544;1.516;2023-12-29T06:03:59;10.63;;;1.25;;
72771;SDS011;60894;42.544;1.516;2023-12-29T06:06:28;5.18;;;1.05;;
72771;SDS011;60894;42.544;1.516;2023-12-29T06:08:55;5.43;;;0.88;;
72771;SDS011;60894;42.544;1.516;2023-12-29T06:11:22;8.67;;;1.30;;
72771;SDS011;60894;42.544;1.516;2023-12-29T06:13:49;8.02;;;1.00;;
72771;SDS011;60894;42.544;1.516;2023-12-29T06:16:19;4.68;;;0.65;;
72771;SDS011;60894;42.544;1.516;2023-12-29T06:18:46;5.28;;;0.70;;
72771;SDS011;60894;42.544;1.516;2023-12-29T06:21:13;2.08;;;0.60;;
72771;SDS011;60894;42.544;1.516;2023-12-29T06:23:42;6.93;;;1.30;;
72771;SDS011;60894;42.544;1.516;2023-12-29T06:26:14;4.93;;;1.10;;
72771;SDS011;60894;42.544;1.516;2023-12-29T06:28:42;2.45;;;1.00;;
72771;SDS011;60894;42.544;1.516;2023-12-29T06:31:09;2.95;;;1.05;;
72771;SDS011;60894;42.544;1.516;2023-12-29T06:33:36;3.67;;;1.08;;
72771;SDS011;60894;42.544;1.516;2023-12-29T06:36:06;2.37;;;0.70;;
72771;SDS011;60894;42.544;1.516;2023-12-29T06:38:34;2.60;;;0.70;;
72771;SDS011;60894;42.544;1.516;2023-12-29T06:41:03;4.43;;;0.98;;
72771;SDS011;60894;42.544;1.516;2023-12-29T06:43:30;2.67;;;1.15;;
72771;SDS011;60894;42.544;1.516;2023-12-29T06:45:57;4.03;;;1.50;;
72771;SDS011;60894;42.544;1.516;2023-12-29T06:48:24;1.90;;;0.60;;
72771;SDS011;60894;42.544;1.516;2023-12-29T06:50:51;2.53;;;0.90;;
72771;SDS011;60894;42.544;1.516;2023-12-29T06:53:18;4.18;;;1.10;;
72771;SDS011;60894;42.544;1.516;2023-12-29T06:55:45;6.55;;;1.45;;
72771;SDS011;60894;42.544;1.516;2023-12-29T06:58:13;5.95;;;1.70;;
72771;SDS011;60894;42.544;1.516;2023-12-29T07:00:40;4.73;;;1.43;;
72771;SDS011;60894;42.544;1.516;2023-12-29T07:03:08;2.92;;;0.88;;
72771;SDS011;60894;42.544;1.516;2023-12-29T07:05:35;4.53;;;0.77;;
72771;SDS011;60894;42.544;1.516;2023-12-29T07:08:02;4.38;;;0.70;;
72771;SDS011;60894;42.544;1.516;2023-12-29T07:10:29;3.55;;;1.10;;
72771;SDS011;60894;42.544;1.516;2023-12-29T07:12:56;2.37;;;0.73;;
72771;SDS011;60894;42.544;1.516;2023-12-29T07:15:25;6.47;;;0.88;;
72771;SDS011;60894;42.544;1.516;2023-12-29T07:17:52;2.63;;;0.85;;
72771;SDS011;60894;42.544;1.516;2023-12-29T07:20:19;4.35;;;1.02;;
72771;SDS011;60894;42.544;1.516;2023-12-29T07:22:46;3.97;;;1.10;;
72771;SDS011;60894;42.544;1.516;2023-12-29T07:25:13;4.70;;;1.30;;
72771;SDS011;60894;42.544;1.516;2023-12-29T07:27:40;5.97;;;1.30;;
72771;SDS011;60894;42.544;1.516;2023-12-29T07:30:08;4.28;;;1.38;;
72771;SDS011;60894;42.544;1.516;2023-12-29T07:32:36;3.53;;;1.23;;
72771;SDS011;60894;42.544;1.516;2023-12-29T07:35:04;7.45;;;1.30;;
72771;SDS011;60894;42.544;1.516;2023-12-29T07:37:31;6.77;;;1.50;;
72771;SDS011;60894;42.544;1.516;2023-12-29T07:39:58;7.22;;;2.10;;
72771;SDS011;60894;42.544;1.516;2023-12-29T07:42:25;5.90;;;2.13;;
72771;SDS011;60894;42.544;1.516;2023-12-29T07:44:52;6.72;;;2.42;;
72771;SDS011;60894;42.544;1.516;2023-12-29T07:47:21;6.38;;;1.70;;
72771;SDS011;60894;42.544;1.516;2023-12-29T07:49:49;5.60;;;1.90;;
72771;SDS011;60894;42.544;1.516;2023-12-29T07:52:16;4.90;;;1.50;;
72771;SDS011;60894;42.544;1.516;2023-12-29T07:54:43;8.77;;;1.40;;
72771;SDS011;60894;42.544;1.516;2023-12-29T07:57:10;2.53;;;1.05;;
72771;SDS011;60894;42.544;1.516;2023-12-29T07:59:37;5.70;;;1.00;;
72771;SDS011;60894;42.544;1.516;2023-12-29T08:02:04;4.93;;;1.73;;
72771;SDS011;60894;42.544;1.516;2023-12-29T08:04:31;7.03;;;1.73;;
72771;SDS011;60894;42.544;1.516;2023-12-29T08:06:59;7.07;;;2.00;;
72771;SDS011;60894;42.544;1.516;2023-12-29T08:09:27;6.40;;;2.05;;
72771;SDS011;60894;42.544;1.516;2023-12-29T08:11:54;4.97;;;1.73;;
72771;SDS011;60894;42.544;1.516;2023-12-29T08:14:21;7.23;;;1.73;;
72771;SDS011;60894;42.544;1.516;2023-12-29T08:16:48;5.50;;;2.05;;
72771;SDS011;60894;42.544;1.516;2023-12-29T08:19:15;5.20;;;1.70;;
72771;SDS011;60894;42.544;1.516;2023-12-29T08:21:42;7.03;;;1.50;;
72771;SDS011;60894;42.544;1.516;2023-12-29T08:24:10;4.82;;;1.60;;
72771;SDS011;60894;42.544;1.516;2023-12-29T08:26:44;4.80;;;1.90;;
72771;SDS011;60894;42.544;1.516;2023-12-29T08:29:11;7.85;;;2.90;;
72771;SDS011;60894;42.544;1.516;2023-12-29T08:31:38;7.82;;;2.70;;
72771;SDS011;60894;42.544;1.516;2023-12-29T08:34:05;9.63;;;2.72;;
72771;SDS011;60894;42.544;1.516;2023-12-29T08:36:32;6.35;;;1.75;;
72771;SDS011;60894;42.544;1.516;2023-12-29T08:39:00;7.87;;;2.50;;
72771;SDS011;60894;42.544;1.516;2023-12-29T08:41:29;8.02;;;2.60;;
72771;SDS011;60894;42.544;1.516;2023-12-29T08:43:56;6.32;;;2.38;;
72771;SDS011;60894;42.544;1.516;2023-12-29T08:46:23;6.93;;;2.10;;
72771;SDS011;60894;42.544;1.516;2023-12-29T08:48:50;6.47;;;2.08;;
72771;SDS011;60894;42.544;1.516;2023-12-29T08:51:17;5.23;;;2.17;;
72771;SDS011;60894;42.544;1.516;2023-12-29T08:53:44;6.68;;;1.67;;
72771;SDS011;60894;42.544;1.516;2023-12-29T08:56:11;6.60;;;1.63;;
72771;SDS011;60894;42.544;1.516;2023-12-29T08:58:40;5.53;;;1.80;;
72771;SDS011;60894;42.544;1.516;2023-12-29T09:01:07;8.68;;;2.20;;
72771;SDS011;60894;42.544;1.516;2023-12-29T09:03:34;6.97;;;2.13;;
72771;SDS011;60894;42.544;1.516;2023-12-29T09:06:01;6.03;;;2.03;;
72771;SDS011;60894;42.544;1.516;2023-12-29T09:08:28;5.13;;;1.48;;
72771;SDS011;60894;42.544;1.516;2023-12-29T09:10:56;6.75;;;2.05;;
72771;SDS011;60894;42.544;1.516;2023-12-29T09:13:22;5.05;;;1.70;;
72771;SDS011;60894;42.544;1.516;2023-12-29T09:15:53;7.07;;;1.67;;
72771;SDS011;60894;42.544;1.516;2023-12-29T09:18:20;7.18;;;2.70;;
72771;SDS011;60894;42.544;1.516;2023-12-29T09:20:47;7.90;;;2.45;;
72771;SDS011;60894;42.544;1.516;2023-12-29T09:23:14;6.20;;;2.70;;
72771;SDS011;60894;42.544;1.516;2023-12-29T09:25:41;6.13;;;2.63;;
72771;SDS011;60894;42.544;1.516;2023-12-29T09:28:08;6.77;;;2.27;;
72771;SDS011;60894;42.544;1.516;2023-12-29T09:30:35;6.60;;;2.35;;
72771;SDS011;60894;42.544;1.516;2023-12-29T09:33:04;12.68;;;3.92;;
72771;SDS011;60894;42.544;1.516;2023-12-29T09:35:31;8.75;;;4.07;;
72771;SDS011;60894;42.544;1.516;2023-12-29T09:37:58;9.85;;;3.28;;
72771;SDS011;60894;42.544;1.516;2023-12-29T09:40:25;7.03;;;2.90;;
72771;SDS011;60894;42.544;1.516;2023-12-29T09:42:52;10.73;;;3.70;;
72771;SDS011;60894;42.544;1.516;2023-12-29T09:45:21;8.98;;;3.30;;
72771;SDS011;60894;42.544;1.516;2023-12-29T09:47:51;7.68;;;2.63;;
72771;SDS011;60894;42.544;1.516;2023-12-29T09:50:20;11.25;;;2.80;;
72771;SDS011;60894;42.544;1.516;2023-12-29T09:52:48;5.73;;;2.20;;
72771;SDS011;60894;42.544;1.516;2023-12-29T09:55:16;8.80;;;2.88;;
72771;SDS011;60894;42.544;1.516;2023-12-29T09:57:44;7.57;;;2.97;;
72771;SDS011;60894;42.544;1.516;2023-12-29T10:00:13;7.55;;;2.75;;
72771;SDS011;60894;42.544;1.516;2023-12-29T10:02:42;9.45;;;3.08;;
72771;SDS011;60894;42.544;1.516;2023-12-29T10:05:10;8.13;;;2.93;;
72771;SDS011;60894;42.544;1.516;2023-12-29T10:07:39;11.27;;;3.13;;
72771;SDS011;60894;42.544;1.516;2023-12-29T10:10:06;7.00;;;3.22;;
72771;SDS011;60894;42.544;1.516;2023-12-29T10:12:34;6.70;;;2.28;;
72771;SDS011;60894;42.544;1.516;2023-12-29T10:15:04;6.60;;;2.13;;
72771;SDS011;60894;42.544;1.516;2023-12-29T10:17:36;6.17;;;2.30;;
72771;SDS011;60894;42.544;1.516;2023-12-29T10:20:15;5.60;;;1.98;;
72771;SDS011;60894;42.544;1.516;2023-12-29T10:22:54;10.10;;;3.20;;
72771;SDS011;60894;42.544;1.516;2023-12-29T10:25:32;10.68;;;3.33;;
72771;SDS011;60894;42.544;1.516;2023-12-29T10:27:59;7.45;;;2.60;;
72771;SDS011;60894;42.544;1.516;2023-12-29T10:30:26;8.10;;;2.93;;
72771;SDS011;60894;42.544;1.516;2023-12-29T10:32:53;9.73;;;2.80;;
72771;SDS011;60894;42.544;1.516;2023-12-29T10:35:21;6.82;;;2.13;;
72771;SDS011;60894;42.544;1.516;2023-12-29T10:37:48;13.88;;;2.60;;
72771;SDS011;60894;42.544;1.516;2023-12-29T10:40:19;9.75;;;2.78;;
72771;SDS011;60894;42.544;1.516;2023-12-29T10:42:53;7.23;;;2.60;;
72771;SDS011;60894;42.544;1.516;2023-12-29T10:45:22;8.65;;;3.30;;
72771;SDS011;60894;42.544;1.516;2023-12-29T10:47:50;9.27;;;2.78;;
72771;SDS011;60894;42.544;1.516;2023-12-29T10:50:17;15.80;;;7.03;;
72771;SDS011;60894;42.544;1.516;2023-12-29T10:52:44;13.32;;;4.90;;
72771;SDS011;60894;42.544;1.516;2023-12-29T10:55:11;8.90;;;3.30;;
72771;SDS011;60894;42.544;1.516;2023-12-29T10:57:40;7.60;;;3.03;;
72771;SDS011;60894;42.544;1.516;2023-12-29T11:00:07;7.57;;;1.80;;
72771;SDS011;60894;42.544;1.516;2023-12-29T11:02:37;9.30;;;2.47;;
72771;SDS011;60894;42.544;1.516;2023-12-29T11:05:05;7.32;;;2.40;;
72771;SDS011;60894;42.544;1.516;2023-12-29T11:07:34;7.40;;;2.10;;
72771;SDS011;60894;42.544;1.516;2023-12-29T11:10:03;7.97;;;2.33;;
72771;SDS011;60894;42.544;1.516;2023-12-29T11:12:31;6.38;;;2.25;;
72771;SDS011;60894;42.544;1.516;2023-12-29T11:15:01;8.48;;;3.35;;
72771;SDS011;60894;42.544;1.516;2023-12-29T11:17:30;10.75;;;3.17;;
72771;SDS011;60894;42.544;1.516;2023-12-29T11:19:59;10.00;;;2.60;;
72771;SDS011;60894;42.544;1.516;2023-12-29T11:22:27;6.00;;;2.30;;
72771;SDS011;60894;42.544;1.516;2023-12-29T11:24:56;8.68;;;2.00;;
72771;SDS011;60894;42.544;1.516;2023-12-29T11:27:25;7.25;;;2.25;;
72771;SDS011;60894;42.544;1.516;2023-12-29T11:29:55;3.80;;;1.63;;
72771;SDS011;60894;42.544;1.516;2023-12-29T11:32:24;9.53;;;3.63;;
72771;SDS011;60894;42.544;1.516;2023-12-29T11:35:00;7.80;;;2.97;;
72771;SDS011;60894;42.544;1.516;2023-12-29T11:37:40;7.53;;;2.35;;
72771;SDS011;60894;42.544;1.516;2023-12-29T11:40:18;5.20;;;2.10;;
72771;SDS011;60894;42.544;1.516;2023-12-29T11:42:49;5.30;;;2.08;;
72771;SDS011;60894;42.544;1.516;2023-12-29T11:45:24;8.87;;;2.93;;
72771;SDS011;60894;42.544;1.516;2023-12-29T11:47:53;8.65;;;2.50;;
72771;SDS011;60894;42.544;1.516;2023-12-29T11:50:28;5.82;;;2.47;;
72771;SDS011;60894;42.544;1.516;2023-12-29T11:52:59;5.57;;;2.13;;
72771;SDS011;60894;42.544;1.516;2023-12-29T11:55:30;6.22;;;1.98;;
72771;SDS011;60894;42.544;1.516;2023-12-29T11:58:00;6.87;;;2.77;;
72771;SDS011;60894;42.544;1.516;2023-12-29T12:00:42;5.40;;;2.60;;
72771;SDS011;60894;42.544;1.516;2023-12-29T12:03:17;7.55;;;2.58;;
72771;SDS011;60894;42.544;1.516;2023-12-29T12:05:49;7.60;;;2.70;;
72771;SDS011;60894;42.544;1.516;2023-12-29T12:08:26;7.25;;;2.95;;
72771;SDS011;60894;42.544;1.516;2023-12-29T12:10:55;7.60;;;2.27;;
72771;SDS011;60894;42.544;1.516;2023-12-29T12:19:12;4.45;;;1.50;;
72771;SDS011;60894;42.544;1.516;2023-12-29T12:21:40;5.07;;;1.90;;
72771;SDS011;60894;42.544;1.516;2023-12-29T12:24:07;6.00;;;2.40;;
72771;SDS011;60894;42.544;1.516;2023-12-29T12:26:34;6.50;;;2.00;;
72771;SDS011;60894;42.544;1.516;2023-12-29T12:29:01;6.03;;;2.03;;
72771;SDS011;60894;42.544;1.516;2023-12-29T12:31:29;4.82;;;1.75;;
72771;SDS011;60894;42.544;1.516;2023-12-29T12:33:56;6.10;;;2.15;;
72771;SDS011;60894;42.544;1.516;2023-12-29T12:36:24;6.00;;;1.97;;
72771;SDS011;60894;42.544;1.516;2023-12-29T12:38:52;3.30;;;1.55;;
72771;SDS011;60894;42.544;1.516;2023-12-29T12:41:21;5.13;;;1.80;;
72771;SDS011;60894;42.544;1.516;2023-12-29T12:43:50;5.85;;;1.50;;
72771;SDS011;60894;42.544;1.516;2023-12-29T12:46:23;5.50;;;1.70;;
72771;SDS011;60894;42.544;1.516;2023-12-29T12:48:51;7.27;;;2.40;;
72771;SDS011;60894;42.544;1.516;2023-12-29T12:51:19;7.22;;;2.15;;
72771;SDS011;60894;42.544;1.516;2023-12-29T12:53:48;6.80;;;3.30;;
72771;SDS011;60894;42.544;1.516;2023-12-29T12:56:15;6.57;;;2.47;;
72771;SDS011;60894;42.544;1.516;2023-12-29T12:58:44;5.28;;;2.08;;
72771;SDS011;60894;42.544;1.516;2023-12-29T13:01:11;5.57;;;2.40;;
72771;SDS011;60894;42.544;1.516;2023-12-29T13:03:38;6.63;;;2.85;;
72771;SDS011;60894;42.544;1.516;2023-12-29T13:06:06;7.57;;;1.90;;
72771;SDS011;60894;42.544;1.516;2023-12-29T13:08:33;4.65;;;1.60;;
72771;SDS011;60894;42.544;1.516;2023-12-29T13:11:02;4.18;;;1.70;;
72771;SDS011;60894;42.544;1.516;2023-12-29T13:13:37;4.37;;;1.87;;
72771;SDS011;60894;42.544;1.516;2023-12-29T13:16:04;5.55;;;1.90;;
72771;SDS011;60894;42.544;1.516;2023-12-29T13:18:31;5.50;;;1.77;;
72771;SDS011;60894;42.544;1.516;2023-12-29T13:20:59;5.07;;;1.45;;
72771;SDS011;60894;42.544;1.516;2023-12-29T13:23:27;4.55;;;1.23;;
72771;SDS011;60894;42.544;1.516;2023-12-29T13:25:54;4.57;;;1.20;;
72771;SDS011;60894;42.544;1.516;2023-12-29T13:28:24;4.05;;;1.30;;
72771;SDS011;60894;42.544;1.516;2023-12-29T13:30:53;3.50;;;1.13;;
72771;SDS011;60894;42.544;1.516;2023-12-29T13:33:24;5.43;;;2.05;;
72771;SDS011;60894;42.544;1.516;2023-12-29T13:35:56;3.83;;;1.45;;
72771;SDS011;60894;42.544;1.516;2023-12-29T13:38:33;4.80;;;1.63;;
72771;SDS011;60894;42.544;1.516;2023-12-29T13:41:04;6.47;;;1.55;;
72771;SDS011;60894;42.544;1.516;2023-12-29T13:43:35;12.15;;;5.10;;
72771;SDS011;60894;42.544;1.516;2023-12-29T13:46:08;8.70;;;3.28;;
72771;SDS011;60894;42.544;1.516;2023-12-29T13:48:36;5.30;;;1.95;;
72771;SDS011;60894;42.544;1.516;2023-12-29T13:51:03;3.03;;;1.20;;
72771;SDS011;60894;42.544;1.516;2023-12-29T13:53:31;5.97;;;1.75;;
72771;SDS011;60894;42.544;1.516;2023-12-29T13:56:05;2.60;;;1.00;;
72771;SDS011;60894;42.544;1.516;2023-12-29T13:58:33;2.63;;;1.00;;
72771;SDS011;60894;42.544;1.516;2023-12-29T14:01:01;1.92;;;0.80;;
72771;SDS011;60894;42.544;1.516;2023-12-29T14:03:35;4.80;;;1.50;;
72771;SDS011;60894;42.544;1.516;2023-12-29T14:06:07;8.93;;;2.90;;
72771;SDS011;60894;42.544;1.516;2023-12-29T14:08:39;4.68;;;1.63;;
72771;SDS011;60894;42.544;1.516;2023-12-29T14:11:07;3.35;;;1.50;;
72771;SDS011;60894;42.544;1.516;2023-12-29T14:13:34;5.75;;;1.70;;
72771;SDS011;60894;42.544;1.516;2023-12-29T14:16:03;5.87;;;1.57;;
72771;SDS011;60894;42.544;1.516;2023-12-29T14:18:36;5.85;;;1.40;;
72771;SDS011;60894;42.544;1.516;2023-12-29T14:21:22;6.85;;;2.10;;
72771;SDS011;60894;42.544;1.516;2023-12-29T14:24:06;5.40;;;1.88;;
72771;SDS011;60894;42.544;1.516;2023-12-29T14:26:34;11.82;;;4.07;;
72771;SDS011;60894;42.544;1.516;2023-12-29T14:29:02;5.10;;;2.00;;
72771;SDS011;60894;42.544;1.516;2023-12-29T14:31:32;5.47;;;1.77;;
72771;SDS011;60894;42.544;1.516;2023-12-29T14:34:03;5.40;;;2.45;;
72771;SDS011;60894;42.544;1.516;2023-12-29T14:36:30;13.93;;;6.03;;
72771;SDS011;60894;42.544;1.516;2023-12-29T14:38:57;6.32;;;2.15;;
72771;SDS011;60894;42.544;1.516;2023-12-29T14:41:24;6.37;;;1.60;;
72771;SDS011;60894;42.544;1.516;2023-12-29T14:43:51;4.20;;;1.30;;
72771;SDS011;60894;42.544;1.516;2023-12-29T14:46:19;3.47;;;1.55;;
72771;SDS011;60894;42.544;1.516;2023-12-29T14:48:47;4.25;;;1.30;;
72771;SDS011;60894;42.544;1.516;2023-12-29T14:51:14;4.88;;;1.60;;
72771;SDS011;60894;42.544;1.516;2023-12-29T14:53:44;6.00;;;1.80;;
72771;SDS011;60894;42.544;1.516;2023-12-29T14:56:13;7.90;;;2.25;;
72771;SDS011;60894;42.544;1.516;2023-12-29T14:58:40;6.78;;;2.17;;
72771;SDS011;60894;42.544;1.516;2023-12-29T15:01:07;6.65;;;2.40;;